createdAt,value
2022-09-21T00:00:08.991Z,100382.16
2022-09-21T00:04:12.028Z,100382.09
2022-09-21T00:08:16.808Z,100383.84
2022-09-21T00:12:20.484Z,100378.56
2022-09-21T00:16:24.328Z,100376.84
2022-09-21T00:20:29.077Z,100375.97
2022-09-21T00:24:35.199Z,100380.41
2022-09-21T00:28:40.223Z,100379.47
2022-09-21T00:32:43.479Z,100375.97
2022-09-21T00:36:46.962Z,100367.19
2022-09-21T00:40:51.708Z,100375.09
2022-09-21T00:44:55.030Z,100374.19
2022-09-21T00:48:59.579Z,100374.22
2022-09-21T00:53:05.816Z,100378.56
2022-09-21T00:57:11.174Z,100375.03
2022-09-21T01:01:18.135Z,100371.53
2022-09-21T01:05:21.572Z,100373.25
2022-09-21T01:09:25.613Z,100371.41
2022-09-21T01:13:41.745Z,100377.56
2022-09-21T01:17:52.670Z,100373.13
2022-09-21T01:22:06.199Z,100378.38
2022-09-21T01:26:35.941Z,100371.34
2022-09-21T01:30:48.233Z,100378.34
2022-09-21T01:34:56.940Z,100388.91
2022-09-21T01:39:04.038Z,100381.00
2022-09-21T01:43:10.655Z,100394.19
2022-09-21T01:47:17.796Z,100387.97
2022-09-21T01:51:23.375Z,100384.47
2022-09-21T01:55:30.652Z,100385.34
2022-09-21T01:59:42.728Z,100386.25
2022-09-21T02:03:52.431Z,100388.91
2022-09-21T02:07:56.524Z,100388.03
2022-09-21T02:12:00.221Z,100391.56
2022-09-21T02:16:24.327Z,100395.94
2022-09-21T02:20:33.314Z,100396.84
2022-09-21T02:24:42.301Z,100396.81
2022-09-21T02:28:53.053Z,100400.28
2022-09-21T02:33:03.191Z,100410.84
2022-09-21T02:37:12.684Z,100414.38
2022-09-21T02:41:20.892Z,100424.09
2022-09-21T02:45:27.835Z,100421.44
2022-09-21T02:49:36.928Z,100412.63
2022-09-21T02:53:43.169Z,100408.25
2022-09-21T02:57:48.597Z,100416.94
2022-09-21T03:01:53.146Z,100423.06
2022-09-21T03:05:56.689Z,100420.41
2022-09-21T03:10:01.195Z,100422.19
2022-09-21T03:14:07.137Z,100422.16
2022-09-21T03:18:11.400Z,100422.97
2022-09-21T03:22:14.610Z,100437.03
2022-09-21T03:26:22.361Z,100441.41
2022-09-21T03:30:26.561Z,100436.06
2022-09-21T03:34:32.802Z,100437.84
2022-09-21T03:38:36.475Z,100440.44
2022-09-21T03:42:41.556Z,100444.78
2022-09-21T03:46:44.985Z,100450.88
2022-09-21T03:50:47.946Z,100449.09
2022-09-21T03:54:51.179Z,100457.84
2022-09-21T03:58:55.546Z,100468.31
2022-09-21T04:02:58.752Z,100466.56
2022-09-21T04:07:01.980Z,100469.13
2022-09-21T04:11:11.904Z,100465.59
2022-09-21T04:15:19.463Z,100471.72
2022-09-21T04:19:22.614Z,100477.88
2022-09-21T04:23:25.568Z,100480.47
2022-09-21T04:27:28.626Z,100482.19
2022-09-21T04:31:33.290Z,100479.53
2022-09-21T04:35:36.279Z,100490.09
2022-09-21T04:39:39.550Z,100496.28
2022-09-21T04:43:43.681Z,100498.91
2022-09-21T04:47:48.018Z,100495.41
2022-09-21T04:51:51.313Z,100499.72
2022-09-21T04:55:55.445Z,100504.94
2022-09-21T04:59:58.758Z,100511.09
2022-09-21T05:04:03.496Z,100511.97
2022-09-21T05:08:06.746Z,100518.19
2022-09-21T05:12:10.150Z,100515.56
2022-09-21T05:16:13.193Z,100516.50
2022-09-21T05:20:17.862Z,100521.84
2022-09-21T05:24:20.877Z,100516.59
2022-09-21T05:28:24.708Z,100520.09
2022-09-21T05:32:39.863Z,100527.97
2022-09-21T05:36:52.400Z,100535.03
2022-09-21T05:40:55.834Z,100535.88
2022-09-21T05:44:59.472Z,100535.94
2022-09-21T05:49:07.389Z,100527.16
2022-09-21T05:53:41.095Z,100535.09
2022-09-21T05:57:51.814Z,100538.69
2022-09-21T06:02:05.750Z,100548.47
2022-09-21T06:06:10.762Z,100548.56
2022-09-21T06:10:16.221Z,100545.19
2022-09-21T06:14:24.640Z,100544.44
2022-09-21T06:18:27.808Z,100564.69
2022-09-21T06:22:30.834Z,100553.31
2022-09-21T06:26:35.564Z,100561.28
2022-09-21T06:30:40.963Z,100564.88
2022-09-21T06:34:44.820Z,100555.38
2022-09-21T06:38:47.926Z,100563.47
2022-09-21T06:42:57.177Z,100573.34
2022-09-21T06:47:00.388Z,100570.00
2022-09-21T06:51:05.786Z,100571.91
2022-09-21T06:55:10.000Z,100567.59
2022-09-21T06:59:14.771Z,100569.41
2022-09-21T07:03:18.396Z,100574.69
2022-09-21T07:07:21.752Z,100576.47
2022-09-21T07:11:25.365Z,100583.63
2022-09-21T07:15:31.250Z,100578.34
2022-09-21T07:19:34.279Z,100583.59
2022-09-21T07:23:37.925Z,100586.31
2022-09-21T07:27:41.131Z,100589.03
2022-09-21T07:31:46.298Z,100589.09
2022-09-21T07:35:53.580Z,100599.66
2022-09-21T07:39:56.626Z,100597.91
2022-09-21T07:43:59.871Z,100597.03
2022-09-21T07:48:09.100Z,100600.56
2022-09-21T07:52:12.464Z,100604.97
2022-09-21T07:56:17.590Z,100603.25
2022-09-21T08:00:20.914Z,100610.44
2022-09-21T08:04:25.274Z,100598.31
2022-09-21T08:08:28.454Z,100595.84
2022-09-21T08:12:31.492Z,100610.91
2022-09-21T08:16:34.860Z,100604.72
2022-09-21T08:20:40.089Z,100609.13
2022-09-21T08:24:44.562Z,100600.38
2022-09-21T08:28:50.080Z,100608.41
2022-09-21T08:32:55.685Z,100605.84
2022-09-21T08:37:00.331Z,100611.16
2022-09-21T08:41:14.206Z,100612.94
2022-09-21T08:45:20.758Z,100611.28
2022-09-21T08:49:28.894Z,100608.69
2022-09-21T08:53:35.983Z,100613.13
2022-09-21T08:57:39.001Z,100604.31
2022-09-21T09:01:55.972Z,100605.22
2022-09-21T09:06:03.419Z,100607.91
2022-09-21T09:10:29.339Z,100596.47
2022-09-21T09:14:56.952Z,100608.88
2022-09-21T09:19:08.525Z,100598.28
2022-09-21T09:23:20.333Z,100597.41
2022-09-21T09:27:29.450Z,100594.69
2022-09-21T09:31:35.178Z,100590.31
2022-09-21T09:35:45.101Z,100598.25
2022-09-21T09:39:55.018Z,100603.53
2022-09-21T09:44:15.419Z,100598.22
2022-09-21T09:48:42.046Z,100592.94
2022-09-21T09:52:46.422Z,100592.06
2022-09-21T09:56:49.481Z,100598.31
2022-09-21T10:00:55.426Z,100594.75
2022-09-21T10:05:06.135Z,100587.69
2022-09-21T10:09:26.856Z,100578.84
2022-09-21T10:13:31.627Z,100577.97
2022-09-21T10:17:36.254Z,100567.38
2022-09-21T10:21:44.488Z,100569.16
2022-09-21T10:25:55.630Z,100566.47
2022-09-21T10:29:58.858Z,100564.66
2022-09-21T10:34:15.407Z,100556.69
2022-09-21T10:38:22.715Z,100553.06
2022-09-21T10:42:26.164Z,100556.63
2022-09-21T10:46:36.488Z,100545.97
2022-09-21T10:50:43.450Z,100542.44
2022-09-21T10:54:52.122Z,100537.09
2022-09-21T10:59:23.636Z,100537.91
2022-09-21T11:03:48.382Z,100543.09
2022-09-21T11:07:58.341Z,100543.91
2022-09-21T11:12:08.604Z,100545.59
2022-09-21T11:16:16.708Z,100547.38
2022-09-21T11:20:29.033Z,100541.97
2022-09-21T11:24:44.044Z,100535.69
2022-09-21T11:28:50.851Z,100532.97
2022-09-21T11:33:11.939Z,100528.41
2022-09-21T11:37:28.302Z,100523.06
2022-09-21T11:42:04.831Z,100534.66
2022-09-21T11:46:17.415Z,100527.63
2022-09-21T11:50:35.345Z,100528.59
2022-09-21T11:55:01.781Z,100525.94
2022-09-21T11:59:23.920Z,100521.44
2022-09-21T12:03:50.732Z,100523.06
2022-09-21T12:08:14.822Z,100502.53
2022-09-21T12:12:22.981Z,100509.59
2022-09-21T12:16:35.476Z,100507.00
2022-09-21T12:20:46.988Z,100488.38
2022-09-21T12:24:54.089Z,100484.84
2022-09-21T12:29:03.478Z,100491.91
2022-09-21T12:33:16.622Z,100485.53
2022-09-21T12:37:24.865Z,100484.53
2022-09-21T12:41:34.366Z,100478.19
2022-09-21T12:45:42.653Z,100482.47
2022-09-21T12:49:50.317Z,100472.69
2022-09-21T12:53:56.341Z,100470.88
2022-09-21T12:58:15.904Z,100473.56
2022-09-21T13:02:23.858Z,100470.88
2022-09-21T13:06:59.861Z,100469.91
2022-09-21T13:11:05.771Z,100470.78
2022-09-21T13:15:16.427Z,100470.84
2022-09-21T13:19:23.077Z,100466.44
2022-09-21T13:23:34.312Z,100460.31
2022-09-21T13:28:01.408Z,100461.25
2022-09-21T13:32:21.556Z,100456.78
2022-09-21T13:36:32.933Z,100457.69
2022-09-21T13:40:37.885Z,100446.22
2022-09-21T13:44:43.771Z,100448.91
2022-09-21T13:48:54.315Z,100442.78
2022-09-21T13:53:00.595Z,100445.56
2022-09-21T13:57:22.285Z,100433.22
2022-09-21T14:01:48.368Z,100451.81
2022-09-21T14:05:54.286Z,100442.97
2022-09-21T14:10:00.854Z,100448.22
2022-09-21T14:14:13.858Z,100440.31
2022-09-21T14:18:38.716Z,100437.69
2022-09-21T14:22:44.294Z,100448.38
2022-09-21T14:26:54.459Z,100440.53
2022-09-21T14:31:02.980Z,100437.97
2022-09-21T14:35:11.419Z,100435.31
2022-09-21T14:39:20.565Z,100434.47
2022-09-21T14:43:29.020Z,100438.00
2022-09-21T14:47:51.774Z,100437.13
2022-09-21T14:52:12.711Z,100444.19
2022-09-21T14:56:39.742Z,100438.00
2022-09-21T15:00:45.060Z,100431.84
2022-09-21T15:05:02.106Z,100437.16
2022-09-21T15:09:41.618Z,100422.97
2022-09-21T15:14:01.063Z,100427.44
2022-09-21T15:18:04.687Z,100423.06
2022-09-21T15:22:19.439Z,100431.13
2022-09-21T15:26:29.353Z,100430.31
2022-09-21T15:30:33.791Z,100433.91
2022-09-21T15:34:37.546Z,100426.91
2022-09-21T15:38:49.389Z,100432.28
2022-09-21T15:43:04.590Z,100433.22
2022-09-21T15:47:12.584Z,100423.50
2022-09-21T15:51:22.269Z,100434.13
2022-09-21T15:55:26.904Z,100435.00
2022-09-21T15:59:31.069Z,100428.81
2022-09-21T16:03:34.091Z,100439.47
2022-09-21T16:07:38.902Z,100443.00
2022-09-21T16:11:43.476Z,100441.28
2022-09-21T16:16:02.095Z,100443.94
2022-09-21T16:20:24.096Z,100442.22
2022-09-21T16:24:29.327Z,100449.31
2022-09-21T16:28:39.685Z,100447.56
2022-09-21T16:32:42.717Z,100455.53
2022-09-21T16:36:46.569Z,100460.91
2022-09-21T16:40:51.902Z,100456.53
2022-09-21T16:44:56.612Z,100468.06
2022-09-21T16:49:00.832Z,100455.69
2022-09-21T16:53:04.728Z,100466.34
2022-09-21T16:57:08.500Z,100470.78
2022-09-21T17:01:14.146Z,100464.63
2022-09-21T17:05:20.695Z,100470.81
2022-09-21T17:09:29.516Z,100474.41
2022-09-21T17:13:33.782Z,100478.81
2022-09-21T17:17:38.290Z,100487.66
2022-09-21T17:21:41.761Z,100482.34
2022-09-21T17:25:46.509Z,100496.53
2022-09-21T17:29:50.462Z,100490.38
2022-09-21T17:33:55.371Z,100494.81
2022-09-21T17:37:58.536Z,100493.94
2022-09-21T17:42:05.747Z,100506.28
2022-09-21T17:46:17.631Z,100499.25
2022-09-21T17:50:26.947Z,100495.72
2022-09-21T17:54:31.609Z,100498.38
2022-09-21T17:58:48.321Z,100501.94
2022-09-21T18:02:52.646Z,100494.00
2022-09-21T18:06:57.479Z,100507.25
2022-09-21T18:11:07.674Z,100505.50
2022-09-21T18:15:23.367Z,100516.09
2022-09-21T18:19:38.277Z,100506.41
2022-09-21T18:23:53.858Z,100516.13
2022-09-21T18:28:00.791Z,100520.56
2022-09-21T18:32:20.350Z,100525.00
2022-09-21T18:36:29.867Z,100521.44
2022-09-21T18:40:41.591Z,100521.47
2022-09-21T18:44:51.821Z,100538.25
2022-09-21T18:49:02.422Z,100529.41
2022-09-21T18:53:15.347Z,100540.88
2022-09-21T18:57:20.591Z,100529.38
2022-09-21T19:01:24.165Z,100540.84
2022-09-21T19:05:28.425Z,100536.44
2022-09-21T19:09:39.090Z,100547.94
2022-09-21T19:13:52.840Z,100550.56
2022-09-21T19:18:12.481Z,100551.44
2022-09-21T19:22:20.332Z,100545.28
2022-09-21T19:26:29.155Z,100539.09
2022-09-21T19:30:35.126Z,100554.97
2022-09-21T19:34:38.700Z,100563.78
2022-09-21T19:38:42.620Z,100554.97
2022-09-21T19:43:04.031Z,100560.25
2022-09-21T19:47:16.661Z,100551.41
2022-09-21T19:51:21.459Z,100557.56
2022-09-21T19:55:43.450Z,100561.97
2022-09-21T19:59:47.563Z,100551.38
2022-09-21T20:03:53.719Z,100563.69
2022-09-21T20:08:04.429Z,100558.41
2022-09-21T20:12:18.611Z,100560.16
2022-09-21T20:16:37.240Z,100558.34
2022-09-21T20:20:42.190Z,100562.75
2022-09-21T20:24:52.963Z,100561.84
2022-09-21T20:28:56.594Z,100561.84
2022-09-21T20:33:02.819Z,100562.72
2022-09-21T20:37:12.575Z,100569.72
2022-09-21T20:41:19.038Z,100577.66
2022-09-21T20:45:22.604Z,100565.28
2022-09-21T20:49:25.549Z,100566.16
2022-09-21T20:53:30.192Z,100574.03
2022-09-21T20:57:33.247Z,100575.81
2022-09-21T21:01:36.426Z,100582.78
2022-09-21T21:05:39.831Z,100581.88
2022-09-21T21:09:44.405Z,100580.09
2022-09-21T21:13:48.207Z,100577.44
2022-09-21T21:17:51.410Z,100575.66
2022-09-21T21:21:54.582Z,100570.34
2022-09-21T21:26:05.670Z,100565.09
2022-09-21T21:30:10.470Z,100551.84
2022-09-21T21:34:13.661Z,100555.34
2022-09-21T21:38:16.894Z,100559.75
2022-09-21T21:42:22.171Z,100562.38
2022-09-21T21:46:25.627Z,100565.00
2022-09-21T21:50:28.617Z,100562.34
2022-09-21T21:54:33.407Z,100561.44
2022-09-21T21:58:38.537Z,100559.63
2022-09-21T22:02:41.880Z,100555.19
2022-09-21T22:06:46.067Z,100557.81
2022-09-21T22:10:50.278Z,100555.09
2022-09-21T22:14:54.956Z,100557.66
2022-09-21T22:18:58.313Z,100561.19
2022-09-21T22:23:01.403Z,100562.06
2022-09-21T22:27:04.651Z,100558.50
2022-09-21T22:31:12.303Z,100562.88
2022-09-21T22:35:16.103Z,100564.66
2022-09-21T22:39:19.303Z,100557.59
2022-09-21T22:43:22.236Z,100549.69
2022-09-21T22:47:26.590Z,100545.28
2022-09-21T22:51:30.454Z,100532.06
2022-09-21T22:55:33.632Z,100527.69
2022-09-21T22:59:36.570Z,100526.78
2022-09-21T23:03:43.007Z,100522.41
2022-09-21T23:07:46.093Z,100525.91
2022-09-21T23:11:53.320Z,100522.34
2022-09-21T23:16:02.371Z,100520.50
2022-09-21T23:20:07.692Z,100522.22
2022-09-21T23:24:10.981Z,100524.84
2022-09-21T23:28:14.177Z,100515.13
2022-09-21T23:32:17.117Z,100520.38
2022-09-21T23:36:23.490Z,100513.34
2022-09-21T23:40:26.721Z,100517.72
2022-09-21T23:44:30.088Z,100518.59
2022-09-21T23:48:33.495Z,100521.22
2022-09-21T23:52:38.158Z,100518.56
2022-09-21T23:56:41.144Z,100508.00
